Time;durP1;ratioP1;P1;durP2;ratioP2;P2;SDS_P1;SDS_P2;PMS_P1;PMS_P2;Temp;Humidity;BMP_temperature;BMP_pressure;BME280_temperature;BME280_humidity;BME280_pressure;Samples;Min_cycle;Max_cycle;Signal;HPM_P1;HPM_P2
2022/06/29 00:00:43;;;;;;;5.53;3.08;;;;;;;;;;5049380;28;20033;-66
2022/06/29 00:03:09;;;;;;;3.97;2.85;;;;;;;;;;5047218;28;20029;-66
2022/06/29 00:05:35;;;;;;;3.45;3.00;;;;;;;;;;5047149;28;20075;-66
2022/06/29 00:08:00;;;;;;;5.10;2.90;;;;;;;;;;5051009;28;20036;-66
2022/06/29 00:10:26;;;;;;;7.70;3.17;;;;;;;;;;5040086;28;20041;-66
2022/06/29 00:12:52;;;;;;;6.25;3.08;;;;;;;;;;5053234;28;20079;-66
2022/06/29 00:15:19;;;;;;;7.15;3.80;;;;;;;;;;5040196;28;20056;-65
2022/06/29 00:17:45;;;;;;;5.82;3.28;;;;;;;;;;5049624;28;20670;-65
2022/06/29 00:20:12;;;;;;;4.95;3.00;;;;;;;;;;5050756;28;20021;-66
2022/06/29 00:22:38;;;;;;;6.07;3.25;;;;;;;;;;5044920;28;20041;-66
2022/06/29 00:25:04;;;;;;;4.85;3.45;;;;;;;;;;5030260;28;20026;-66
2022/06/29 00:27:30;;;;;;;5.13;2.90;;;;;;;;;;5043598;28;20067;-66
2022/06/29 00:29:55;;;;;;;4.05;2.97;;;;;;;;;;5048022;28;20033;-66
2022/06/29 00:32:21;;;;;;;8.02;3.38;;;;;;;;;;5049939;28;20112;-66
2022/06/29 00:34:46;;;;;;;7.22;3.58;;;;;;;;;;5042461;28;20029;-66
2022/06/29 00:37:12;;;;;;;4.03;2.90;;;;;;;;;;5038124;28;20510;-66
2022/06/29 00:39:37;;;;;;;4.32;3.17;;;;;;;;;;5033427;28;20026;-66
2022/06/29 00:42:03;;;;;;;6.78;3.22;;;;;;;;;;5041684;28;20775;-66
2022/06/29 00:44:29;;;;;;;6.70;3.30;;;;;;;;;;5029939;28;20071;-66
2022/06/29 00:46:57;;;;;;;4.05;3.13;;;;;;;;;;5034705;28;20064;-66
2022/06/29 00:49:24;;;;;;;4.05;3.10;;;;;;;;;;5046339;28;20055;-66
2022/06/29 00:51:53;;;;;;;5.90;3.50;;;;;;;;;;5033885;28;20060;-66
2022/06/29 00:54:23;;;;;;;4.72;3.17;;;;;;;;;;5048680;28;20025;-66
2022/06/29 00:56:49;;;;;;;4.88;3.30;;;;;;;;;;5047981;28;20053;-66
2022/06/29 00:59:20;;;;;;;8.13;3.28;;;;;;;;;;5049312;28;20016;-65
2022/06/29 01:01:46;;;;;;;7.05;3.25;;;;;;;;;;5048806;28;20752;-66
2022/06/29 01:04:12;;;;;;;6.70;3.28;;;;;;;;;;5068458;28;20526;-66
2022/06/29 01:06:37;;;;;;;5.57;3.30;;;;;;;;;;5067394;28;20191;-66
2022/06/29 01:09:03;;;;;;;5.65;3.53;;;;;;;;;;5065009;28;20029;-66
2022/06/29 01:11:29;;;;;;;3.80;2.88;;;;;;;;;;5067037;28;20052;-66
2022/06/29 01:13:55;;;;;;;4.82;2.80;;;;;;;;;;5064288;28;20044;-66
2022/06/29 01:16:20;;;;;;;5.00;2.83;;;;;;;;;;5067422;28;20162;-66
2022/06/29 01:18:45;;;;;;;5.93;2.70;;;;;;;;;;5062379;28;20040;-66
2022/06/29 01:21:11;;;;;;;4.45;2.90;;;;;;;;;;5067175;28;20126;-66
2022/06/29 01:23:37;;;;;;;4.38;2.85;;;;;;;;;;5069857;28;20154;-66
2022/06/29 01:26:07;;;;;;;7.57;3.17;;;;;;;;;;5063816;28;20405;-66
2022/06/29 01:28:33;;;;;;;4.13;2.92;;;;;;;;;;5066084;28;20062;-66
2022/06/29 01:31:00;;;;;;;8.15;2.88;;;;;;;;;;5067336;28;20109;-66
2022/06/29 01:33:26;;;;;;;3.30;2.70;;;;;;;;;;5064767;28;20079;-66
2022/06/29 01:35:52;;;;;;;5.95;3.22;;;;;;;;;;5050270;28;20465;-66
2022/06/29 01:38:19;;;;;;;5.38;3.13;;;;;;;;;;5054900;28;20017;-66
2022/06/29 01:40:44;;;;;;;3.78;2.92;;;;;;;;;;5036801;28;20513;-65
2022/06/29 01:43:10;;;;;;;5.93;3.28;;;;;;;;;;5028585;28;20045;-65
2022/06/29 01:45:35;;;;;;;5.13;3.20;;;;;;;;;;5028449;28;20033;-66
2022/06/29 01:48:01;;;;;;;4.47;2.90;;;;;;;;;;5030871;28;20466;-66
2022/06/29 01:50:26;;;;;;;4.72;3.17;;;;;;;;;;5046881;28;20175;-66
2022/06/29 01:52:51;;;;;;;6.88;3.00;;;;;;;;;;5056913;28;20032;-66
2022/06/29 01:55:17;;;;;;;4.13;2.63;;;;;;;;;;5064048;28;20059;-66
2022/06/29 01:57:43;;;;;;;7.70;3.40;;;;;;;;;;5065014;28;20028;-65
2022/06/29 02:00:09;;;;;;;5.78;2.85;;;;;;;;;;5044405;28;20040;-66
2022/06/29 02:02:34;;;;;;;6.32;3.15;;;;;;;;;;5045285;28;20021;-66
2022/06/29 02:04:59;;;;;;;8.05;3.45;;;;;;;;;;5044457;28;20017;-66
2022/06/29 02:07:25;;;;;;;6.00;3.35;;;;;;;;;;5049665;28;20041;-66
2022/06/29 02:09:50;;;;;;;5.43;3.33;;;;;;;;;;5048331;28;20037;-66
2022/06/29 02:12:15;;;;;;;5.35;3.00;;;;;;;;;;5045626;28;20029;-66
2022/06/29 02:14:41;;;;;;;6.47;2.95;;;;;;;;;;5034815;28;20085;-66
2022/06/29 02:17:06;;;;;;;4.85;2.95;;;;;;;;;;5048419;28;20403;-66
2022/06/29 02:19:31;;;;;;;5.00;3.10;;;;;;;;;;5052445;28;20029;-65
2022/06/29 02:21:57;;;;;;;5.88;2.90;;;;;;;;;;5057187;28;20503;-65
2022/06/29 02:24:22;;;;;;;5.97;3.25;;;;;;;;;;5040027;28;20041;-66
2022/06/29 02:26:47;;;;;;;15.90;3.75;;;;;;;;;;5040862;28;20021;-66
2022/06/29 02:29:13;;;;;;;6.57;2.90;;;;;;;;;;5046771;28;20017;-66
2022/06/29 02:37:05;;;;;;;;;;;;;;;;;;5058383;28;20056;-66
2022/06/29 02:39:31;;;;;;;4.57;2.85;;;;;;;;;;5046708;28;20358;-66
2022/06/29 02:41:56;;;;;;;4.10;3.10;;;;;;;;;;5046229;28;20051;-66
2022/06/29 02:44:22;;;;;;;4.90;2.75;;;;;;;;;;5047179;28;20898;-66
2022/06/29 02:46:47;;;;;;;6.25;3.13;;;;;;;;;;5063759;28;20028;-65
2022/06/29 02:49:12;;;;;;;5.00;3.10;;;;;;;;;;5067677;28;20128;-66
2022/06/29 02:51:37;;;;;;;6.05;3.13;;;;;;;;;;5061857;28;20090;-66
2022/06/29 02:54:03;;;;;;;4.78;3.45;;;;;;;;;;5051068;28;20073;-65
2022/06/29 02:56:29;;;;;;;5.97;3.10;;;;;;;;;;5065130;28;20029;-65
2022/06/29 02:58:54;;;;;;;4.95;3.10;;;;;;;;;;5075308;28;20031;-66
2022/06/29 03:01:19;;;;;;;6.15;3.10;;;;;;;;;;5051044;28;20124;-66
2022/06/29 03:03:45;;;;;;;4.20;3.30;;;;;;;;;;5043527;28;20037;-66
2022/06/29 03:06:10;;;;;;;7.20;3.20;;;;;;;;;;5050104;28;20461;-66
2022/06/29 03:08:36;;;;;;;5.82;3.50;;;;;;;;;;5058499;28;22200;-66
2022/06/29 03:11:02;;;;;;;6.00;3.30;;;;;;;;;;5066847;28;20354;-66
2022/06/29 03:13:27;;;;;;;3.20;2.90;;;;;;;;;;5047694;28;20044;-66
2022/06/29 03:15:52;;;;;;;3.88;2.83;;;;;;;;;;5049027;28;20046;-66
2022/06/29 03:18:18;;;;;;;6.95;3.25;;;;;;;;;;5069082;28;20039;-65
2022/06/29 03:20:43;;;;;;;5.07;2.97;;;;;;;;;;5057786;28;20017;-66
2022/06/29 03:23:08;;;;;;;4.45;3.22;;;;;;;;;;5047152;28;20028;-66
2022/06/29 03:25:34;;;;;;;8.27;3.70;;;;;;;;;;5033345;28;20032;-66
2022/06/29 03:27:59;;;;;;;8.05;3.35;;;;;;;;;;5043569;28;20037;-66
2022/06/29 03:30:25;;;;;;;11.82;3.63;;;;;;;;;;5046610;28;20030;-66
2022/06/29 03:32:50;;;;;;;8.10;2.95;;;;;;;;;;5055969;28;20209;-66
2022/06/29 03:35:15;;;;;;;8.07;3.15;;;;;;;;;;5058427;28;20021;-66
2022/06/29 03:37:40;;;;;;;5.78;3.33;;;;;;;;;;5062635;28;20032;-66
2022/06/29 03:40:06;;;;;;;5.10;3.50;;;;;;;;;;5054003;28;20400;-66
2022/06/29 03:42:32;;;;;;;10.52;2.63;;;;;;;;;;5045780;28;20541;-65
2022/06/29 03:44:57;;;;;;;6.78;3.03;;;;;;;;;;5046161;28;21214;-66
2022/06/29 03:47:23;;;;;;;5.38;3.03;;;;;;;;;;5055017;28;20114;-66
2022/06/29 03:49:48;;;;;;;4.35;3.38;;;;;;;;;;5049245;28;20048;-66
2022/06/29 03:52:14;;;;;;;5.45;3.13;;;;;;;;;;5039764;28;20057;-66
2022/06/29 03:54:39;;;;;;;6.97;3.10;;;;;;;;;;5048980;28;20029;-66
2022/06/29 03:57:05;;;;;;;6.57;3.28;;;;;;;;;;5054381;28;20024;-66
2022/06/29 03:59:30;;;;;;;8.27;3.13;;;;;;;;;;5040167;28;20028;-66
2022/06/29 04:01:56;;;;;;;9.38;3.47;;;;;;;;;;5049131;28;20439;-66
2022/06/29 04:04:21;;;;;;;4.70;3.13;;;;;;;;;;5053381;28;20029;-66
2022/06/29 04:06:46;;;;;;;7.80;3.67;;;;;;;;;;5048769;28;20064;-65
2022/06/29 04:09:12;;;;;;;5.10;3.22;;;;;;;;;;5048403;28;20041;-66
2022/06/29 04:11:49;;;;;;;7.90;2.97;;;;;;;;;;5047738;28;20037;-65
2022/06/29 04:14:23;;;;;;;7.18;3.20;;;;;;;;;;5050667;28;20021;-66
2022/06/29 04:16:50;;;;;;;7.78;3.03;;;;;;;;;;5069819;28;20128;-66
2022/06/29 04:19:15;;;;;;;5.65;2.88;;;;;;;;;;5056539;28;20028;-66
2022/06/29 04:21:40;;;;;;;5.15;2.92;;;;;;;;;;5053776;28;20037;-66
2022/06/29 04:24:06;;;;;;;5.07;2.88;;;;;;;;;;5044659;28;20088;-65
2022/06/29 04:26:32;;;;;;;5.57;3.30;;;;;;;;;;5041305;28;20383;-65
2022/06/29 04:28:58;;;;;;;5.38;3.08;;;;;;;;;;5058147;28;20040;-66
2022/06/29 04:31:23;;;;;;;6.82;3.03;;;;;;;;;;5048734;28;20041;-65
2022/06/29 04:33:49;;;;;;;10.13;3.20;;;;;;;;;;5057932;28;20029;-65
2022/06/29 04:36:14;;;;;;;10.57;3.47;;;;;;;;;;5047872;28;20033;-66
2022/06/29 04:38:40;;;;;;;7.90;3.53;;;;;;;;;;5056951;28;20025;-66
2022/06/29 04:41:05;;;;;;;6.75;3.65;;;;;;;;;;5049108;28;21228;-66
2022/06/29 04:43:30;;;;;;;5.40;3.10;;;;;;;;;;5054684;28;20060;-66
2022/06/29 04:48:41;;;;;;;7.05;3.65;;;;;;;;;;5039234;28;20040;-66
2022/06/29 04:51:07;;;;;;;5.93;3.38;;;;;;;;;;5046710;28;20036;-65
2022/06/29 04:53:32;;;;;;;5.60;3.20;;;;;;;;;;5049001;28;20406;-66
2022/06/29 04:55:58;;;;;;;5.63;3.33;;;;;;;;;;5068902;28;20426;-66
2022/06/29 04:58:23;;;;;;;6.47;3.40;;;;;;;;;;5076128;28;20041;-66
2022/06/29 05:00:49;;;;;;;6.65;3.28;;;;;;;;;;5056890;28;20422;-65
2022/06/29 05:03:14;;;;;;;4.47;3.47;;;;;;;;;;5043002;28;20025;-65
2022/06/29 05:05:39;;;;;;;4.82;3.72;;;;;;;;;;5045290;28;20024;-66
2022/06/29 05:08:05;;;;;;;5.68;3.40;;;;;;;;;;5045915;28;20041;-65
2022/06/29 05:10:31;;;;;;;6.35;3.40;;;;;;;;;;5044321;28;20131;-66
2022/06/29 05:12:57;;;;;;;4.00;3.58;;;;;;;;;;5045284;28;20040;-66
2022/06/29 05:15:22;;;;;;;6.95;3.75;;;;;;;;;;5037952;28;20506;-65
2022/06/29 05:17:48;;;;;;;7.47;3.30;;;;;;;;;;5048170;28;20074;-66
2022/06/29 05:20:13;;;;;;;6.47;3.67;;;;;;;;;;5058810;28;20017;-66
2022/06/29 05:22:39;;;;;;;6.60;3.42;;;;;;;;;;5046758;28;20036;-65
2022/06/29 05:25:05;;;;;;;5.22;3.90;;;;;;;;;;5048730;28;20112;-66
2022/06/29 05:27:31;;;;;;;14.10;4.70;;;;;;;;;;5066177;28;20140;-65
2022/06/29 05:29:56;;;;;;;9.75;4.90;;;;;;;;;;5067275;28;20111;-66
2022/06/29 05:32:22;;;;;;;6.13;4.43;;;;;;;;;;5063769;28;20056;-65
2022/06/29 05:34:47;;;;;;;8.50;4.50;;;;;;;;;;5067069;28;20580;-66
2022/06/29 05:37:13;;;;;;;9.23;4.72;;;;;;;;;;5066974;28;20082;-65
2022/06/29 05:39:38;;;;;;;8.77;4.65;;;;;;;;;;5076041;28;20391;-66
2022/06/29 05:42:04;;;;;;;7.30;4.28;;;;;;;;;;5061818;28;20094;-66
2022/06/29 05:44:29;;;;;;;7.57;4.20;;;;;;;;;;5048454;28;20040;-66
2022/06/29 05:46:54;;;;;;;6.20;4.22;;;;;;;;;;5047599;28;20472;-65
2022/06/29 05:49:20;;;;;;;6.75;4.57;;;;;;;;;;5048205;28;20064;-65
2022/06/29 05:51:45;;;;;;;7.72;4.45;;;;;;;;;;5035465;28;20128;-66
2022/06/29 05:54:10;;;;;;;8.55;4.53;;;;;;;;;;5046733;28;20033;-65
2022/06/29 05:56:36;;;;;;;6.47;4.32;;;;;;;;;;5047827;28;20021;-65
2022/06/29 05:59:01;;;;;;;10.95;4.75;;;;;;;;;;5046670;28;20020;-66
2022/06/29 06:01:26;;;;;;;11.02;4.60;;;;;;;;;;5036115;28;20029;-67
2022/06/29 06:03:52;;;;;;;7.40;4.50;;;;;;;;;;5040057;28;20044;-66
2022/06/29 06:06:17;;;;;;;8.32;5.05;;;;;;;;;;5048767;28;20036;-66
2022/06/29 06:08:42;;;;;;;8.05;4.85;;;;;;;;;;5056425;28;20029;-66
2022/06/29 06:11:08;;;;;;;9.90;5.28;;;;;;;;;;5061433;28;20029;-67
2022/06/29 06:13:33;;;;;;;8.40;5.38;;;;;;;;;;5055303;28;20044;-66
2022/06/29 06:15:59;;;;;;;7.20;4.65;;;;;;;;;;5053840;28;20040;-66
2022/06/29 06:18:24;;;;;;;20.20;6.35;;;;;;;;;;5047492;28;20033;-66
2022/06/29 06:20:50;;;;;;;10.27;5.80;;;;;;;;;;5052446;28;20036;-65
2022/06/29 06:23:15;;;;;;;9.32;6.15;;;;;;;;;;5047635;28;20532;-66
2022/06/29 06:25:40;;;;;;;13.70;5.95;;;;;;;;;;5043665;28;20638;-66
2022/06/29 06:28:06;;;;;;;10.77;6.30;;;;;;;;;;5028642;28;20048;-66
2022/06/29 06:30:31;;;;;;;8.77;6.18;;;;;;;;;;5028584;28;20578;-66
2022/06/29 06:32:56;;;;;;;12.20;6.38;;;;;;;;;;5034320;28;20451;-66
2022/06/29 06:35:22;;;;;;;11.13;5.95;;;;;;;;;;5065236;28;20028;-66
2022/06/29 06:37:48;;;;;;;11.50;5.68;;;;;;;;;;5066851;28;20029;-66
2022/06/29 06:42:58;;;;;;;8.65;5.47;;;;;;;;;;5032004;28;20133;-66
2022/06/29 06:45:23;;;;;;;11.10;5.97;;;;;;;;;;5037687;28;20113;-66
2022/06/29 06:47:49;;;;;;;8.10;5.90;;;;;;;;;;5032251;28;20059;-66
2022/06/29 06:50:14;;;;;;;10.75;6.38;;;;;;;;;;5045641;28;20025;-66
2022/06/29 06:52:41;;;;;;;8.75;5.28;;;;;;;;;;5028723;28;20030;-66
2022/06/29 06:55:06;;;;;;;12.05;5.75;;;;;;;;;;5033804;28;20033;-66
2022/06/29 06:57:32;;;;;;;9.82;5.60;;;;;;;;;;5050012;28;20032;-66
2022/06/29 06:59:57;;;;;;;8.75;5.25;;;;;;;;;;5046378;28;20107;-66
2022/06/29 07:02:22;;;;;;;12.30;5.32;;;;;;;;;;5050716;28;20029;-66
2022/06/29 07:04:48;;;;;;;10.00;5.15;;;;;;;;;;5068544;28;20090;-66
2022/06/29 07:07:14;;;;;;;9.95;4.95;;;;;;;;;;5060891;28;20086;-66
2022/06/29 07:09:39;;;;;;;8.27;4.45;;;;;;;;;;5043651;28;20512;-66
2022/06/29 07:12:05;;;;;;;13.35;4.82;;;;;;;;;;5032679;28;20053;-66
2022/06/29 07:14:31;;;;;;;10.25;4.88;;;;;;;;;;5027003;28;20399;-66
2022/06/29 07:16:56;;;;;;;11.35;4.72;;;;;;;;;;5051153;28;20029;-66
2022/06/29 07:19:22;;;;;;;9.55;4.45;;;;;;;;;;5041067;28;20068;-66
2022/06/29 07:21:47;;;;;;;5.47;4.07;;;;;;;;;;5045351;28;20037;-66
2022/06/29 07:24:13;;;;;;;9.68;4.30;;;;;;;;;;5055725;28;20112;-66
2022/06/29 07:26:38;;;;;;;10.50;4.38;;;;;;;;;;5070004;28;20035;-66
2022/06/29 07:29:03;;;;;;;9.55;4.72;;;;;;;;;;5068994;28;20023;-66
2022/06/29 07:31:29;;;;;;;4.40;3.65;;;;;;;;;;5055910;28;20037;-66
2022/06/29 07:33:54;;;;;;;5.32;3.75;;;;;;;;;;5055304;28;20060;-66
2022/06/29 07:36:19;;;;;;;9.80;5.10;;;;;;;;;;5038146;28;20041;-66
2022/06/29 07:38:45;;;;;;;9.18;4.10;;;;;;;;;;5056586;28;20028;-66
2022/06/29 07:41:10;;;;;;;6.65;3.30;;;;;;;;;;5049399;28;20051;-66
2022/06/29 07:43:35;;;;;;;5.75;3.35;;;;;;;;;;5049086;28;20546;-66
2022/06/29 07:46:02;;;;;;;4.95;3.55;;;;;;;;;;5063375;28;20135;-66
2022/06/29 07:48:27;;;;;;;6.78;3.45;;;;;;;;;;5047512;28;20433;-66
2022/06/29 07:50:53;;;;;;;5.32;3.00;;;;;;;;;;5046339;28;20571;-66
2022/06/29 07:53:19;;;;;;;7.53;2.80;;;;;;;;;;5039983;28;20074;-66
2022/06/29 07:55:45;;;;;;;4.50;2.85;;;;;;;;;;5034422;28;20033;-66
2022/06/29 07:58:16;;;;;;;7.82;2.70;;;;;;;;;;5032094;28;20036;-65
2022/06/29 08:00:42;;;;;;;7.85;3.38;;;;;;;;;;5034081;28;20064;-65
2022/06/29 08:03:08;;;;;;;13.93;3.22;;;;;;;;;;5050290;28;20036;-65
2022/06/29 08:05:34;;;;;;;5.15;2.83;;;;;;;;;;5044698;28;20017;-65
2022/06/29 08:08:00;;;;;;;7.75;3.00;;;;;;;;;;5051918;28;20021;-65
2022/06/29 08:10:26;;;;;;;6.05;3.00;;;;;;;;;;5047402;28;20047;-64
2022/06/29 08:12:51;;;;;;;7.15;2.70;;;;;;;;;;5048444;28;20116;-65
2022/06/29 08:15:17;;;;;;;7.13;2.70;;;;;;;;;;5039304;28;20047;-65
2022/06/29 08:17:48;;;;;;;4.13;2.88;;;;;;;;;;5035499;28;20494;-65
2022/06/29 08:20:14;;;;;;;5.25;2.83;;;;;;;;;;5031738;28;20018;-65
2022/06/29 08:22:39;;;;;;;4.60;3.20;;;;;;;;;;5037416;28;20064;-65
2022/06/29 08:25:05;;;;;;;6.10;2.80;;;;;;;;;;5040552;28;20042;-65
2022/06/29 08:27:31;;;;;;;3.20;2.40;;;;;;;;;;5037350;28;20029;-65
2022/06/29 08:29:57;;;;;;;5.00;2.92;;;;;;;;;;5035658;28;20036;-65
2022/06/29 08:32:23;;;;;;;6.03;2.20;;;;;;;;;;5036709;28;20020;-65
2022/06/29 08:34:48;;;;;;;5.50;3.03;;;;;;;;;;5082639;28;20029;-65
2022/06/29 08:37:13;;;;;;;8.27;2.65;;;;;;;;;;5055314;28;20559;-65
2022/06/29 08:39:39;;;;;;;4.57;2.53;;;;;;;;;;5037200;28;20552;-65
2022/06/29 08:42:05;;;;;;;6.53;2.22;;;;;;;;;;5041681;28;20049;-65
2022/06/29 08:44:36;;;;;;;5.72;2.60;;;;;;;;;;5035021;28;20120;-65
2022/06/29 08:47:06;;;;;;;5.22;2.60;;;;;;;;;;5031759;28;20120;-65
2022/06/29 08:49:33;;;;;;;5.43;2.10;;;;;;;;;;5032640;28;20732;-65
2022/06/29 08:51:58;;;;;;;7.32;2.40;;;;;;;;;;5047507;28;20514;-65
2022/06/29 08:54:25;;;;;;;4.90;2.25;;;;;;;;;;5037011;28;20041;-65
2022/06/29 08:56:56;;;;;;;4.88;2.15;;;;;;;;;;5049518;28;20045;-66
2022/06/29 08:59:22;;;;;;;2.72;1.90;;;;;;;;;;5047416;28;20071;-65
2022/06/29 09:01:50;;;;;;;3.45;1.63;;;;;;;;;;5028105;28;20032;-65
2022/06/29 09:04:15;;;;;;;4.43;1.90;;;;;;;;;;5037564;28;20029;-65
2022/06/29 09:06:41;;;;;;;2.60;1.70;;;;;;;;;;5046354;28;20091;-65
2022/06/29 09:09:06;;;;;;;2.10;1.90;;;;;;;;;;5029062;28;20440;-65
2022/06/29 09:11:32;;;;;;;11.85;2.20;;;;;;;;;;5029290;28;20459;-65
2022/06/29 09:14:11;;;;;;;5.18;1.80;;;;;;;;;;5045363;28;20079;-65
2022/06/29 09:16:49;;;;;;;7.38;1.70;;;;;;;;;;5065327;28;20036;-65
2022/06/29 09:19:15;;;;;;;4.57;2.35;;;;;;;;;;5040350;28;20116;-65
2022/06/29 09:21:59;;;;;;;3.20;1.67;;;;;;;;;;5040009;28;20558;-65
2022/06/29 09:24:30;;;;;;;3.92;1.83;;;;;;;;;;5033092;28;20441;-65
2022/06/29 09:27:00;;;;;;;6.10;2.08;;;;;;;;;;5046561;28;20033;-65
2022/06/29 09:29:29;;;;;;;3.45;1.83;;;;;;;;;;5047198;28;20029;-65
2022/06/29 09:32:06;;;;;;;5.68;1.90;;;;;;;;;;5054986;28;20048;-65
2022/06/29 09:34:36;;;;;;;3.88;1.50;;;;;;;;;;5060544;28;20024;-65
2022/06/29 09:37:03;;;;;;;4.97;1.38;;;;;;;;;;5061774;28;20045;-65
2022/06/29 09:39:39;;;;;;;1.92;1.40;;;;;;;;;;5052619;28;20510;-64
2022/06/29 09:42:12;;;;;;;2.63;1.42;;;;;;;;;;5059122;28;20032;-65
2022/06/29 09:44:37;;;;;;;3.55;1.40;;;;;;;;;;5054915;28;20051;-65
2022/06/29 09:47:06;;;;;;;5.22;1.42;;;;;;;;;;5063464;28;20449;-65
2022/06/29 09:49:34;;;;;;;2.38;1.23;;;;;;;;;;5057656;28;20119;-65
2022/06/29 09:52:01;;;;;;;3.75;1.50;;;;;;;;;;5050870;28;20074;-65
2022/06/29 09:54:32;;;;;;;3.45;1.50;;;;;;;;;;5055215;28;20510;-65
2022/06/29 09:56:59;;;;;;;3.55;1.60;;;;;;;;;;5072166;28;20029;-65
2022/06/29 10:02:34;;;;;;;3.35;1.45;;;;;;;;;;5020312;28;20124;-65
2022/06/29 10:05:02;;;;;;;3.28;1.65;;;;;;;;;;5042625;28;20037;-65
2022/06/29 10:07:29;;;;;;;6.13;2.20;;;;;;;;;;5048021;28;20061;-65
2022/06/29 10:09:55;;;;;;;2.83;1.40;;;;;;;;;;5058135;28;20456;-65
2022/06/29 10:15:37;;;;;;;7.53;1.60;;;;;;;;;;5067491;28;20596;-65
2022/06/29 10:18:29;;;;;;;2.88;1.55;;;;;;;;;;5063148;28;20483;-65
2022/06/29 10:20:57;;;;;;;5.45;1.60;;;;;;;;;;5045354;28;20033;-66
2022/06/29 10:23:47;;;;;;;4.43;1.50;;;;;;;;;;5052062;28;20024;-65
2022/06/29 10:26:38;;;;;;;4.15;1.60;;;;;;;;;;5043105;28;20048;-65
2022/06/29 10:29:06;;;;;;;3.97;1.45;;;;;;;;;;5046306;28;20061;-65
2022/06/29 10:31:53;;;;;;;2.65;1.52;;;;;;;;;;5050093;28;20032;-65
2022/06/29 10:34:28;;;;;;;2.88;1.52;;;;;;;;;;5050576;28;20510;-65
2022/06/29 10:37:02;;;;;;;3.80;1.88;;;;;;;;;;5068814;28;20139;-65
2022/06/29 10:39:46;;;;;;;4.03;1.70;;;;;;;;;;5065324;28;20033;-65
2022/06/29 10:45:25;;;;;;;4.13;1.30;;;;;;;;;;5067105;28;20091;-65
2022/06/29 10:47:56;;;;;;;2.92;1.55;;;;;;;;;;5066606;28;20033;-65
2022/06/29 10:50:26;;;;;;;4.53;1.67;;;;;;;;;;5067273;28;20039;-65
2022/06/29 10:53:02;;;;;;;5.93;1.90;;;;;;;;;;5065992;28;20539;-65
2022/06/29 10:55:28;;;;;;;2.70;1.70;;;;;;;;;;5061712;28;20140;-65
2022/06/29 10:57:54;;;;;;;9.07;1.77;;;;;;;;;;5057577;28;20450;-65
2022/06/29 11:00:22;;;;;;;4.25;1.80;;;;;;;;;;5047381;28;20033;-65
2022/06/29 11:02:48;;;;;;;4.97;1.70;;;;;;;;;;5046711;28;20033;-65
2022/06/29 11:05:14;;;;;;;4.88;1.80;;;;;;;;;;5051055;28;20605;-65
2022/06/29 11:13:22;;;;;;;4.97;1.83;;;;;;;;;;5041441;28;20576;-65
2022/06/29 11:15:53;;;;;;;4.28;1.48;;;;;;;;;;5037806;28;20457;-65
2022/06/29 11:18:21;;;;;;;2.25;1.52;;;;;;;;;;5049704;28;20029;-65
2022/06/29 11:20:48;;;;;;;3.97;1.80;;;;;;;;;;5039770;28;20028;-65
2022/06/29 11:23:24;;;;;;;3.35;1.45;;;;;;;;;;5050166;28;20075;-65
2022/06/29 11:25:54;;;;;;;5.22;1.55;;;;;;;;;;5047862;28;20743;-65
2022/06/29 11:28:21;;;;;;;5.22;1.58;;;;;;;;;;5048235;28;20502;-65
2022/06/29 11:31:03;;;;;;;4.60;1.70;;;;;;;;;;5044211;28;20087;-65
2022/06/29 11:33:31;;;;;;;3.15;1.40;;;;;;;;;;5040463;28;20048;-65
2022/06/29 11:35:57;;;;;;;2.83;1.50;;;;;;;;;;5047629;28;20033;-65
2022/06/29 11:38:27;;;;;;;4.07;1.92;;;;;;;;;;5033072;28;20025;-65
2022/06/29 11:40:54;;;;;;;6.72;1.95;;;;;;;;;;5030907;28;20025;-65
2022/06/29 11:43:20;;;;;;;5.03;1.83;;;;;;;;;;5031673;28;20045;-65
2022/06/29 11:45:47;;;;;;;5.13;1.55;;;;;;;;;;5034962;28;20033;-66
2022/06/29 11:48:14;;;;;;;3.78;1.50;;;;;;;;;;5037091;28;20124;-66
2022/06/29 11:50:47;;;;;;;3.08;1.70;;;;;;;;;;5033953;28;20025;-66
2022/06/29 11:53:15;;;;;;;2.25;1.45;;;;;;;;;;5038272;28;20026;-66
2022/06/29 11:55:42;;;;;;;5.10;1.85;;;;;;;;;;5033167;28;20044;-66
2022/06/29 11:58:09;;;;;;;1.40;1.30;;;;;;;;;;5040925;28;20033;-65
2022/06/29 12:00:38;;;;;;;5.18;1.60;;;;;;;;;;5035896;28;20038;-66
2022/06/29 12:03:03;;;;;;;3.72;1.92;;;;;;;;;;5044554;28;20040;-66
2022/06/29 12:05:29;;;;;;;4.55;1.70;;;;;;;;;;5040173;28;20020;-66
2022/06/29 12:07:54;;;;;;;3.72;1.90;;;;;;;;;;5043781;28;20112;-70
2022/06/29 12:10:19;;;;;;;5.47;1.65;;;;;;;;;;5053221;28;20047;-69
2022/06/29 12:12:45;;;;;;;10.75;4.50;;;;;;;;;;5060620;28;20422;-70
2022/06/29 12:15:10;;;;;;;5.47;1.85;;;;;;;;;;5054874;28;20055;-69
2022/06/29 12:17:37;;;;;;;2.65;1.40;;;;;;;;;;5069337;28;20649;-69
2022/06/29 12:20:03;;;;;;;7.82;1.80;;;;;;;;;;5058722;28;20025;-70
2022/06/29 12:22:29;;;;;;;2.97;1.60;;;;;;;;;;5060811;28;20021;-69
2022/06/29 12:24:54;;;;;;;5.97;1.73;;;;;;;;;;5060778;28;20032;-69
2022/06/29 12:27:19;;;;;;;1.73;1.30;;;;;;;;;;5065686;28;20071;-69
2022/06/29 12:29:44;;;;;;;6.20;1.70;;;;;;;;;;5067633;28;20695;-69
2022/06/29 12:32:10;;;;;;;2.70;1.50;;;;;;;;;;5068308;28;20043;-68
2022/06/29 12:34:35;;;;;;;3.70;1.40;;;;;;;;;;5055290;28;20033;-69
2022/06/29 12:37:03;;;;;;;6.53;1.90;;;;;;;;;;5054941;28;20517;-69
2022/06/29 12:39:28;;;;;;;4.30;1.50;;;;;;;;;;5054069;28;20032;-66
2022/06/29 12:41:54;;;;;;;7.57;1.65;;;;;;;;;;5059249;28;20048;-66
2022/06/29 12:44:19;;;;;;;4.28;1.60;;;;;;;;;;5061660;28;20903;-66
2022/06/29 12:46:45;;;;;;;9.05;1.83;;;;;;;;;;5064705;28;20039;-66
2022/06/29 12:49:10;;;;;;;5.57;1.60;;;;;;;;;;5068353;28;20064;-66
2022/06/29 12:51:35;;;;;;;4.15;1.50;;;;;;;;;;5052254;28;20107;-66
2022/06/29 12:54:01;;;;;;;3.78;1.50;;;;;;;;;;5036427;28;20453;-66
2022/06/29 12:56:26;;;;;;;3.15;1.77;;;;;;;;;;5034925;28;20029;-66
2022/06/29 12:58:51;;;;;;;3.45;1.42;;;;;;;;;;5043037;28;20052;-67
2022/06/29 13:01:17;;;;;;;4.57;1.40;;;;;;;;;;5039409;28;20118;-67
2022/06/29 13:03:42;;;;;;;3.63;1.60;;;;;;;;;;5034107;28;20025;-67
2022/06/29 13:06:07;;;;;;;4.60;1.40;;;;;;;;;;5038468;28;20482;-67
2022/06/29 13:08:33;;;;;;;5.47;1.88;;;;;;;;;;5019149;28;20044;-67
2022/06/29 13:11:00;;;;;;;6.45;1.67;;;;;;;;;;5042343;28;20044;-67
2022/06/29 13:13:26;;;;;;;2.88;1.40;;;;;;;;;;5038949;28;20030;-66
2022/06/29 13:15:51;;;;;;;4.10;1.85;;;;;;;;;;5041287;28;20033;-66
2022/06/29 13:18:18;;;;;;;5.45;1.90;;;;;;;;;;5065719;28;20069;-66
2022/06/29 13:20:44;;;;;;;1.55;1.45;;;;;;;;;;5044598;28;20122;-66
2022/06/29 13:23:10;;;;;;;3.40;1.45;;;;;;;;;;5048202;28;20076;-66
2022/06/29 13:25:35;;;;;;;2.60;1.60;;;;;;;;;;5044427;28;20036;-66
2022/06/29 13:28:01;;;;;;;5.78;1.60;;;;;;;;;;5059263;28;20037;-66
2022/06/29 13:30:26;;;;;;;5.03;1.40;;;;;;;;;;5057986;28;20063;-66
2022/06/29 13:32:52;;;;;;;5.70;1.90;;;;;;;;;;5051368;28;20045;-66
2022/06/29 13:35:17;;;;;;;1.88;1.40;;;;;;;;;;5058663;28;20032;-65
2022/06/29 13:37:42;;;;;;;1.73;1.10;;;;;;;;;;5059983;28;20079;-65
2022/06/29 13:40:08;;;;;;;2.55;1.50;;;;;;;;;;5046469;28;20036;-65
2022/06/29 13:42:33;;;;;;;3.45;1.65;;;;;;;;;;5057751;28;20025;-65
2022/06/29 13:44:59;;;;;;;2.80;1.48;;;;;;;;;;5041433;28;20037;-65
2022/06/29 13:47:25;;;;;;;3.92;1.70;;;;;;;;;;5042126;28;20024;-65
2022/06/29 13:49:50;;;;;;;3.78;2.00;;;;;;;;;;5040189;28;20422;-64
2022/06/29 13:52:16;;;;;;;6.90;2.08;;;;;;;;;;5046545;28;20147;-64
2022/06/29 13:54:41;;;;;;;4.68;1.85;;;;;;;;;;5040646;28;20490;-65
2022/06/29 13:57:07;;;;;;;2.45;1.38;;;;;;;;;;5054072;28;20351;-67
2022/06/29 13:59:32;;;;;;;4.63;1.80;;;;;;;;;;5041040;28;20032;-66
2022/06/29 14:01:59;;;;;;;4.82;1.70;;;;;;;;;;5042185;28;20029;-66
2022/06/29 14:04:24;;;;;;;4.47;1.55;;;;;;;;;;5043432;28;20032;-66
2022/06/29 14:06:50;;;;;;;2.00;1.50;;;;;;;;;;5049594;28;20025;-66
2022/06/29 14:09:15;;;;;;;1.50;1.13;;;;;;;;;;5060684;28;20086;-66
2022/06/29 14:11:41;;;;;;;3.47;1.30;;;;;;;;;;5060953;28;20037;-66
2022/06/29 14:14:06;;;;;;;2.67;1.30;;;;;;;;;;5049701;28;20025;-66
2022/06/29 14:16:32;;;;;;;3.28;1.40;;;;;;;;;;5064263;28;20040;-66
2022/06/29 14:18:57;;;;;;;1.77;1.30;;;;;;;;;;5063107;28;20032;-66
2022/06/29 14:21:23;;;;;;;2.28;1.30;;;;;;;;;;5055139;28;20016;-66
2022/06/29 14:23:48;;;;;;;4.63;1.52;;;;;;;;;;5059433;28;20055;-65
2022/06/29 14:26:15;;;;;;;1.73;1.35;;;;;;;;;;5041328;28;20037;-66
2022/06/29 14:28:40;;;;;;;2.10;1.52;;;;;;;;;;5026318;28;20098;-66
2022/06/29 14:31:06;;;;;;;6.88;1.80;;;;;;;;;;5037965;28;20404;-66
2022/06/29 14:33:31;;;;;;;6.25;1.40;;;;;;;;;;5036209;28;20104;-66
2022/06/29 14:35:57;;;;;;;5.40;2.03;;;;;;;;;;5032521;28;20164;-66
2022/06/29 14:38:22;;;;;;;20.02;2.47;;;;;;;;;;5067773;28;20043;-67
2022/06/29 14:40:49;;;;;;;3.45;1.20;;;;;;;;;;5046902;28;20120;-66
2022/06/29 14:43:15;;;;;;;2.90;1.42;;;;;;;;;;5051110;28;20047;-66
2022/06/29 14:45:42;;;;;;;2.88;1.30;;;;;;;;;;5047882;28;20103;-65
2022/06/29 14:48:08;;;;;;;5.43;1.73;;;;;;;;;;5042012;28;20035;-66
2022/06/29 14:50:34;;;;;;;2.20;1.70;;;;;;;;;;5066494;28;20036;-65
2022/06/29 14:53:00;;;;;;;5.82;1.60;;;;;;;;;;5045228;28;20047;-66
2022/06/29 14:55:26;;;;;;;4.65;1.63;;;;;;;;;;5045243;28;20078;-66
2022/06/29 14:57:52;;;;;;;3.85;1.45;;;;;;;;;;5033635;28;20033;-65
2022/06/29 15:00:17;;;;;;;1.95;1.42;;;;;;;;;;5041476;28;20020;-66
2022/06/29 15:02:42;;;;;;;2.13;1.48;;;;;;;;;;5038657;28;20046;-66
2022/06/29 15:05:08;;;;;;;3.08;1.25;;;;;;;;;;5037618;28;20037;-65